createdAt,value
2019-02-20T00:02:05.740Z,19.40
2019-02-20T00:04:34.145Z,18.03
2019-02-20T00:07:02.574Z,23.30
2019-02-20T00:09:31.022Z,21.60
2019-02-20T00:11:59.460Z,19.57
2019-02-20T00:14:27.888Z,21.70
2019-02-20T00:16:56.482Z,20.90
2019-02-20T00:19:24.930Z,22.40
2019-02-20T00:21:53.349Z,19.97
2019-02-20T00:24:21.802Z,25.13
2019-02-20T00:26:50.233Z,20.67
2019-02-20T00:29:18.685Z,19.60
2019-02-20T00:31:47.124Z,22.47
2019-02-20T00:34:15.547Z,20.10
2019-02-20T00:36:43.967Z,29.23
2019-02-20T00:39:12.486Z,18.03
2019-02-20T00:41:40.975Z,19.23
2019-02-20T00:44:11.132Z,16.97
2019-02-20T00:46:41.196Z,16.67
2019-02-20T00:49:13.939Z,18.07
2019-02-20T00:51:43.999Z,21.27
2019-02-20T00:54:12.446Z,19.40
2019-02-20T00:56:40.874Z,20.50
2019-02-20T00:59:09.324Z,15.57
2019-02-20T01:01:37.747Z,17.70
2019-02-20T01:04:06.365Z,20.27
2019-02-20T01:06:34.783Z,18.00
2019-02-20T01:09:03.233Z,17.37
2019-02-20T01:11:31.652Z,18.50
2019-02-20T01:14:00.110Z,14.23
2019-02-20T01:16:28.531Z,15.83
2019-02-20T01:18:56.975Z,16.00
2019-02-20T01:21:25.396Z,16.70
2019-02-20T01:23:53.822Z,18.90
2019-02-20T01:26:22.329Z,15.80
2019-02-20T01:28:50.748Z,18.47
2019-02-20T01:31:19.189Z,20.90
2019-02-20T01:33:47.622Z,16.43
2019-02-20T01:36:16.070Z,15.17
2019-02-20T01:38:44.493Z,20.93
2019-02-20T01:41:12.943Z,19.07
2019-02-20T01:43:41.361Z,18.30
2019-02-20T01:46:09.819Z,19.57
2019-02-20T01:48:38.239Z,16.50
2019-02-20T01:51:06.688Z,19.30
2019-02-20T01:53:35.106Z,18.87
2019-02-20T01:56:03.566Z,20.40
2019-02-20T01:58:31.982Z,20.90
2019-02-20T02:01:02.461Z,21.57
2019-02-20T02:03:30.882Z,22.90
2019-02-20T02:05:59.329Z,19.80
2019-02-20T02:08:27.752Z,27.87
2019-02-20T02:10:56.199Z,17.60
2019-02-20T02:13:24.624Z,21.73
2019-02-20T02:15:53.075Z,15.43
2019-02-20T02:18:21.502Z,21.67
2019-02-20T02:20:49.954Z,21.13
2019-02-20T02:23:20.080Z,17.30
2019-02-20T02:25:48.707Z,21.97
2019-02-20T02:28:17.131Z,20.93
2019-02-20T02:30:45.586Z,22.10
2019-02-20T02:33:14.014Z,20.47
2019-02-20T02:35:42.465Z,21.07
2019-02-20T02:38:10.897Z,23.53
2019-02-20T02:40:39.352Z,24.67
2019-02-20T02:43:07.751Z,19.53
2019-02-20T02:45:36.212Z,21.37
2019-02-20T02:48:04.638Z,26.57
2019-02-20T02:50:33.098Z,24.80
2019-02-20T02:53:01.521Z,25.20
2019-02-20T02:55:29.981Z,19.87
2019-02-20T02:57:58.400Z,23.87
2019-02-20T03:00:26.876Z,24.77
2019-02-20T03:02:55.354Z,22.53
2019-02-20T03:05:23.783Z,30.40
2019-02-20T03:07:52.237Z,24.90
2019-02-20T03:10:20.659Z,23.07
2019-02-20T03:12:49.115Z,34.13
2019-02-20T03:15:17.537Z,20.20
2019-02-20T03:17:45.984Z,23.53
2019-02-20T03:20:14.437Z,23.10
2019-02-20T03:22:42.877Z,23.87
2019-02-20T03:25:11.287Z,20.90
2019-02-20T03:27:39.728Z,21.63
2019-02-20T03:30:09.094Z,20.50
2019-02-20T03:32:37.544Z,20.23
2019-02-20T03:35:06.931Z,25.63
2019-02-20T03:37:35.389Z,19.80
2019-02-20T03:40:04.853Z,23.07
2019-02-20T03:42:33.317Z,24.10
2019-02-20T03:45:01.747Z,22.10
2019-02-20T03:47:30.196Z,23.00
2019-02-20T03:49:58.626Z,21.73
2019-02-20T03:52:27.083Z,25.50
2019-02-20T03:54:55.503Z,25.47
2019-02-20T03:57:23.953Z,19.67
2019-02-20T03:59:52.388Z,22.83
2019-02-20T04:02:20.842Z,22.17
2019-02-20T04:04:49.263Z,27.70
2019-02-20T04:07:17.715Z,23.07
2019-02-20T04:09:46.133Z,25.07
2019-02-20T04:12:14.663Z,25.83
2019-02-20T04:14:43.163Z,22.40
2019-02-20T04:17:11.599Z,23.80
2019-02-20T04:19:40.027Z,21.10
2019-02-20T04:22:08.481Z,22.93
2019-02-20T04:24:36.909Z,21.93
2019-02-20T04:27:05.357Z,20.23
2019-02-20T04:29:33.785Z,23.30
2019-02-20T04:32:02.239Z,23.97
2019-02-20T04:34:30.665Z,22.70
2019-02-20T04:36:59.115Z,25.80
2019-02-20T04:39:27.549Z,20.97
2019-02-20T04:41:55.984Z,30.30
2019-02-20T04:44:24.411Z,21.70
2019-02-20T04:46:52.834Z,18.37
2019-02-20T04:49:21.289Z,29.03
2019-02-20T04:51:49.712Z,22.00
2019-02-20T04:54:18.176Z,23.33
2019-02-20T04:56:46.608Z,19.90
2019-02-20T04:59:15.061Z,21.43
2019-02-20T05:01:43.485Z,22.10
2019-02-20T05:04:11.965Z,32.73
2019-02-20T05:06:40.391Z,22.13
2019-02-20T05:09:08.834Z,26.70
2019-02-20T05:11:37.255Z,25.30
2019-02-20T05:14:05.713Z,23.13
2019-02-20T05:16:34.138Z,31.07
2019-02-20T05:19:02.573Z,23.30
2019-02-20T05:21:31.004Z,19.87
2019-02-20T05:23:59.460Z,22.63
2019-02-20T05:26:27.900Z,25.43
2019-02-20T05:28:56.336Z,30.40
2019-02-20T05:31:24.773Z,22.03
2019-02-20T05:33:53.231Z,24.77
2019-02-20T05:36:21.739Z,27.43
2019-02-20T05:38:50.198Z,21.83
2019-02-20T05:41:18.641Z,26.37
2019-02-20T05:43:47.083Z,23.90
2019-02-20T05:46:15.505Z,29.93
2019-02-20T05:48:43.960Z,22.93
2019-02-20T05:51:12.372Z,27.23
2019-02-20T05:53:40.831Z,32.40
2019-02-20T05:56:09.254Z,25.23
2019-02-20T05:58:37.717Z,25.80
2019-02-20T06:01:06.136Z,29.40
2019-02-20T06:03:34.593Z,28.33
2019-02-20T06:06:03.052Z,29.30
2019-02-20T06:08:31.479Z,29.30
2019-02-20T06:10:59.910Z,26.60
2019-02-20T06:13:28.369Z,21.37
2019-02-20T06:15:56.799Z,32.43
2019-02-20T06:18:25.248Z,23.63
2019-02-20T06:20:53.685Z,26.07
2019-02-20T06:23:22.132Z,25.37
2019-02-20T06:25:50.567Z,24.93
2019-02-20T06:28:18.989Z,30.10
2019-02-20T06:30:47.445Z,21.07
2019-02-20T06:33:15.877Z,28.10
2019-02-20T06:35:44.326Z,29.70
2019-02-20T06:38:12.768Z,30.37
2019-02-20T06:40:41.218Z,23.30
2019-02-20T06:43:09.646Z,25.20
2019-02-20T06:45:38.103Z,24.17
2019-02-20T06:48:06.536Z,26.40
2019-02-20T06:50:34.982Z,25.60
2019-02-20T06:53:03.407Z,25.73
2019-02-20T06:55:31.941Z,24.13
2019-02-20T06:58:00.358Z,26.57
2019-02-20T07:00:28.814Z,22.37
2019-02-20T07:02:57.240Z,29.70
2019-02-20T07:05:36.343Z,24.53
2019-02-20T07:08:25.404Z,23.07
2019-02-20T07:11:13.643Z,27.00
2019-02-20T07:13:51.376Z,30.90
2019-02-20T07:16:41.950Z,27.07
2019-02-20T07:19:47.877Z,22.67
2019-02-20T07:22:22.333Z,27.93
2019-02-20T07:25:02.857Z,24.73
2019-02-20T07:27:35.520Z,21.07
2019-02-20T07:30:06.687Z,25.07
2019-02-20T07:32:35.109Z,25.83
2019-02-20T07:35:03.828Z,26.00
2019-02-20T07:37:32.261Z,27.80
2019-02-20T07:40:00.706Z,19.50
2019-02-20T07:42:29.125Z,26.43
2019-02-20T07:44:57.586Z,32.57
2019-02-20T07:47:26.014Z,31.27
2019-02-20T07:49:54.477Z,27.57
2019-02-20T07:52:22.900Z,24.43
2019-02-20T07:54:51.333Z,27.07
2019-02-20T07:57:19.790Z,31.53
2019-02-20T07:59:48.209Z,25.57
2019-02-20T08:02:16.661Z,24.23
2019-02-20T08:04:45.089Z,24.43
2019-02-20T08:07:13.550Z,28.23
2019-02-20T08:09:41.968Z,28.73
2019-02-20T08:12:10.485Z,30.03
2019-02-20T08:14:38.914Z,32.07
2019-02-20T08:17:07.524Z,33.90
2019-02-20T08:19:35.942Z,30.90
2019-02-20T08:22:04.469Z,31.23
2019-02-20T08:24:32.909Z,29.70
2019-02-20T08:27:01.341Z,44.30
2019-02-20T08:29:29.803Z,38.70
2019-02-20T08:31:58.303Z,35.30
2019-02-20T08:34:26.742Z,30.27
2019-02-20T08:36:55.267Z,33.10
2019-02-20T08:39:23.691Z,34.97
2019-02-20T08:41:52.141Z,32.47
2019-02-20T08:44:20.571Z,36.40
2019-02-20T08:46:49.025Z,36.47
2019-02-20T08:49:17.444Z,34.70
2019-02-20T08:51:45.898Z,34.97
2019-02-20T08:54:14.320Z,35.50
2019-02-20T08:56:42.784Z,36.40
2019-02-20T08:59:11.213Z,36.27
2019-02-20T09:01:39.674Z,36.27
2019-02-20T09:04:08.101Z,37.20
2019-02-20T09:06:36.554Z,37.00
2019-02-20T09:09:05.855Z,30.30
2019-02-20T09:11:34.275Z,46.03
2019-02-20T09:14:02.731Z,43.43
2019-02-20T09:16:31.161Z,41.73
2019-02-20T09:18:59.621Z,33.00
2019-02-20T09:21:28.056Z,40.30
2019-02-20T09:23:56.520Z,43.67
2019-02-20T09:26:24.938Z,37.23
2019-02-20T09:28:53.395Z,32.23
2019-02-20T09:31:21.823Z,36.03
2019-02-20T09:33:50.274Z,34.20
2019-02-20T09:36:18.693Z,40.30
2019-02-20T09:38:47.149Z,37.03
2019-02-20T09:41:15.563Z,35.97
2019-02-20T09:43:44.959Z,38.30
2019-02-20T09:46:13.385Z,40.67
2019-02-20T09:48:41.833Z,37.23
2019-02-20T09:51:10.251Z,39.53
2019-02-20T09:53:38.709Z,39.07
2019-02-20T09:56:07.136Z,40.87
2019-02-20T09:58:35.585Z,38.17
2019-02-20T10:01:04.004Z,37.53
2019-02-20T10:03:32.466Z,38.40
2019-02-20T10:06:00.886Z,35.63
2019-02-20T10:08:29.336Z,35.87
2019-02-20T10:10:57.777Z,40.30
2019-02-20T10:13:26.196Z,32.77
2019-02-20T10:15:54.644Z,35.53
2019-02-20T10:18:23.079Z,31.07
2019-02-20T10:20:51.529Z,33.50
2019-02-20T10:23:19.963Z,33.30
2019-02-20T10:25:48.407Z,30.53
2019-02-20T10:28:16.836Z,34.63
2019-02-20T10:30:45.298Z,33.87
2019-02-20T10:33:13.729Z,35.57
2019-02-20T10:35:42.187Z,32.70
2019-02-20T10:38:10.620Z,31.77
2019-02-20T10:40:39.077Z,32.07
2019-02-20T10:43:07.577Z,38.20
2019-02-20T10:45:36.033Z,29.80
2019-02-20T10:48:04.455Z,29.43
2019-02-20T10:50:32.911Z,34.13
2019-02-20T10:53:01.346Z,31.97
2019-02-20T10:55:29.795Z,32.57
2019-02-20T10:57:58.216Z,34.33
2019-02-20T11:00:28.384Z,32.10
2019-02-20T11:02:56.804Z,38.90
2019-02-20T11:05:25.329Z,30.13
2019-02-20T11:07:53.744Z,30.63
2019-02-20T11:10:24.034Z,33.37
2019-02-20T11:12:52.723Z,31.03
2019-02-20T11:15:21.185Z,29.90
2019-02-20T11:17:49.609Z,31.53
2019-02-20T11:20:18.078Z,30.27
2019-02-20T11:22:46.561Z,35.20
2019-02-20T11:25:15.007Z,29.47
2019-02-20T11:27:43.507Z,32.03
2019-02-20T11:30:17.862Z,27.07
2019-02-20T11:32:46.282Z,30.03
2019-02-20T11:35:14.732Z,27.97
2019-02-20T11:37:43.147Z,28.63
2019-02-20T11:40:11.673Z,28.83
2019-02-20T11:42:40.097Z,28.40
2019-02-20T11:45:11.403Z,28.80
2019-02-20T11:47:39.824Z,32.73
2019-02-20T11:50:10.087Z,27.93
2019-02-20T11:52:38.788Z,28.43
2019-02-20T11:55:14.864Z,25.80
2019-02-20T11:57:43.462Z,29.40
2019-02-20T12:00:14.469Z,22.57
2019-02-20T12:02:42.991Z,24.27
2019-02-20T12:05:11.488Z,41.03
2019-02-20T12:07:40.008Z,27.13
2019-02-20T12:10:12.601Z,25.90
2019-02-20T12:12:40.922Z,27.77
2019-02-20T12:15:09.499Z,30.27
2019-02-20T12:17:38.015Z,24.60
2019-02-20T12:20:10.418Z,25.90
2019-02-20T12:22:38.896Z,27.67
2019-02-20T12:25:09.052Z,24.37
2019-02-20T12:27:37.580Z,20.63
2019-02-20T12:30:11.138Z,20.73
2019-02-20T12:32:39.672Z,22.03
2019-02-20T12:35:09.662Z,25.20
2019-02-20T12:37:38.170Z,25.53
2019-02-20T12:40:09.022Z,25.37
2019-02-20T12:42:37.479Z,27.53
2019-02-20T12:45:09.874Z,22.80
2019-02-20T12:47:38.331Z,23.00
2019-02-20T12:50:09.602Z,22.63
2019-02-20T12:52:38.086Z,25.10
2019-02-20T12:55:07.740Z,22.53
2019-02-20T12:57:36.269Z,26.03
2019-02-20T13:00:08.110Z,21.10
2019-02-20T13:02:36.573Z,21.63
2019-02-20T13:05:06.612Z,19.90
2019-02-20T13:07:35.083Z,23.07
2019-02-20T13:10:03.511Z,19.77
2019-02-20T13:12:32.035Z,23.80
2019-02-20T13:15:00.467Z,23.27
2019-02-20T13:17:28.924Z,19.40
2019-02-20T13:19:57.367Z,19.30
2019-02-20T13:22:25.824Z,20.10
2019-02-20T13:24:54.256Z,19.17
2019-02-20T13:27:23.215Z,18.53
2019-02-20T13:29:51.724Z,17.30
2019-02-20T13:32:20.183Z,22.40
2019-02-20T13:34:48.693Z,23.33
2019-02-20T13:37:17.158Z,20.67
2019-02-20T13:39:45.573Z,15.23
2019-02-20T13:42:14.102Z,19.90
2019-02-20T13:44:42.538Z,24.23
2019-02-20T13:47:10.990Z,16.17
2019-02-20T13:49:39.416Z,17.83
2019-02-20T13:52:07.940Z,13.33
2019-02-20T13:54:36.393Z,20.17
2019-02-20T13:57:05.851Z,21.00
2019-02-20T13:59:34.565Z,23.87
2019-02-20T14:02:03.000Z,23.90
2019-02-20T14:04:31.466Z,14.77
2019-02-20T14:06:59.930Z,18.30
2019-02-20T14:09:28.432Z,22.00
2019-02-20T14:11:56.925Z,18.43
2019-02-20T14:14:25.374Z,16.57
2019-02-20T14:16:54.078Z,16.63
2019-02-20T14:19:22.533Z,21.23
2019-02-20T14:21:50.967Z,20.93
2019-02-20T14:24:19.417Z,18.07
2019-02-20T14:26:47.846Z,17.90
2019-02-20T14:29:16.304Z,16.83
2019-02-20T14:31:44.736Z,26.70
2019-02-20T14:34:13.475Z,15.20
2019-02-20T14:36:41.968Z,19.57
2019-02-20T14:39:10.747Z,19.90
2019-02-20T14:41:39.167Z,18.10
2019-02-20T14:44:07.624Z,18.73
2019-02-20T14:46:36.367Z,15.10
2019-02-20T14:49:05.169Z,16.90
2019-02-20T14:51:33.632Z,16.20
2019-02-20T14:54:02.094Z,16.10
2019-02-20T14:56:30.597Z,22.50
2019-02-20T14:58:59.056Z,18.33
2019-02-20T15:01:27.483Z,18.60
2019-02-20T15:03:55.935Z,14.57
2019-02-20T15:06:24.748Z,19.53
2019-02-20T15:08:53.197Z,15.27
2019-02-20T15:11:21.616Z,16.23
2019-02-20T15:13:50.141Z,15.57
2019-02-20T15:16:18.565Z,20.07
2019-02-20T15:18:47.013Z,15.30
2019-02-20T15:21:15.442Z,18.17
2019-02-20T15:23:44.343Z,21.80
2019-02-20T15:26:12.843Z,18.70
2019-02-20T15:28:41.301Z,16.30
2019-02-20T15:31:09.727Z,20.37
2019-02-20T15:33:38.195Z,23.17
2019-02-20T15:36:06.681Z,20.80
2019-02-20T15:38:35.136Z,19.33
2019-02-20T15:41:03.846Z,18.43
2019-02-20T15:43:32.273Z,26.23
2019-02-20T15:46:00.723Z,22.17
2019-02-20T15:48:29.150Z,22.03
2019-02-20T15:50:57.644Z,17.23
2019-02-20T15:53:26.103Z,17.83
2019-02-20T15:55:54.558Z,18.70
2019-02-20T15:58:23.063Z,25.17
2019-02-20T16:00:51.516Z,19.03
2019-02-20T16:03:20.005Z,20.20
2019-02-20T16:05:48.502Z,18.20
2019-02-20T16:08:16.972Z,18.60
2019-02-20T16:10:45.423Z,22.50
2019-02-20T16:13:13.847Z,23.63
2019-02-20T16:15:42.303Z,20.60
2019-02-20T16:18:10.723Z,16.20
2019-02-20T16:20:39.180Z,24.07
2019-02-20T16:23:07.607Z,24.67
2019-02-20T16:25:36.063Z,99.77
2019-02-20T16:28:04.495Z,44.80
2019-02-20T16:30:33.388Z,44.83
2019-02-20T16:33:01.827Z,40.87
2019-02-20T16:35:30.347Z,37.07
2019-02-20T16:37:58.767Z,40.00
2019-02-20T16:40:27.222Z,36.87
2019-02-20T16:42:55.642Z,32.20
2019-02-20T16:45:25.134Z,25.03
2019-02-20T16:47:54.112Z,23.50
2019-02-20T16:50:22.623Z,25.37
2019-02-20T16:52:51.044Z,27.70
2019-02-20T16:55:19.864Z,26.33
2019-02-20T16:57:56.255Z,23.20
2019-02-20T17:00:20.658Z,24.70
2019-02-20T17:02:49.425Z,23.43
2019-02-20T17:05:17.874Z,23.00
2019-02-20T17:07:46.367Z,22.60
2019-02-20T17:10:16.624Z,22.77
2019-02-20T17:12:45.119Z,24.10
2019-02-20T17:15:17.818Z,21.53
2019-02-20T17:17:46.315Z,20.37
2019-02-20T17:20:17.866Z,22.67
2019-02-20T17:22:46.617Z,24.60
2019-02-20T17:25:15.377Z,21.73
2019-02-20T17:27:43.804Z,21.10
2019-02-20T17:30:14.611Z,22.40
2019-02-20T17:32:43.026Z,21.60
2019-02-20T17:35:11.717Z,21.50
2019-02-20T17:37:40.247Z,21.97
2019-02-20T17:40:10.314Z,24.80
2019-02-20T17:42:38.834Z,25.47
2019-02-20T17:45:10.662Z,25.90
2019-02-20T17:47:39.108Z,22.23
2019-02-20T17:50:12.928Z,26.17
2019-02-20T17:52:41.384Z,16.53
2019-02-20T17:55:10.641Z,25.90
2019-02-20T17:57:39.091Z,17.83
2019-02-20T18:00:13.000Z,20.27
2019-02-20T18:02:41.523Z,20.20
2019-02-20T18:05:10.005Z,18.63
2019-02-20T18:07:38.466Z,22.90
2019-02-20T18:10:08.726Z,18.73
2019-02-20T18:12:37.249Z,24.67
2019-02-20T18:15:08.777Z,24.80
2019-02-20T18:17:37.231Z,17.40
2019-02-20T18:20:10.458Z,15.30
2019-02-20T18:22:38.992Z,19.83
2019-02-20T18:25:11.660Z,20.07
2019-02-20T18:27:40.120Z,14.80
2019-02-20T18:30:15.946Z,15.87
2019-02-20T18:32:44.474Z,17.97
2019-02-20T18:35:15.594Z,19.23
2019-02-20T18:37:44.060Z,18.27
2019-02-20T18:40:15.388Z,16.43
2019-02-20T18:42:43.966Z,19.13
2019-02-20T18:45:14.145Z,12.47
2019-02-20T18:47:42.667Z,13.73
2019-02-20T18:50:13.389Z,12.00
2019-02-20T18:52:41.837Z,11.97
2019-02-20T18:55:13.987Z,14.00
2019-02-20T18:57:42.414Z,16.17
2019-02-20T19:00:16.555Z,16.53
2019-02-20T19:02:45.001Z,14.10
2019-02-20T19:05:13.675Z,11.50
2019-02-20T19:07:42.116Z,13.07
2019-02-20T19:10:13.936Z,12.90
2019-02-20T19:12:48.385Z,10.13
2019-02-20T19:15:22.678Z,9.27
2019-02-20T19:18:03.202Z,14.77
2019-02-20T19:20:37.628Z,12.67
2019-02-20T19:23:25.722Z,12.57
2019-02-20T19:26:19.365Z,10.93
2019-02-20T19:29:06.120Z,15.50
2019-02-20T19:31:43.322Z,9.47
2019-02-20T19:34:40.274Z,8.67
2019-02-20T19:37:23.180Z,15.63
2019-02-20T19:40:03.443Z,10.90
2019-02-20T19:43:10.013Z,11.27
2019-02-20T19:46:05.431Z,11.27
2019-02-20T19:48:42.713Z,12.00
2019-02-20T19:51:38.037Z,12.43
2019-02-20T19:54:41.913Z,15.80
2019-02-20T19:57:19.028Z,10.17
2019-02-20T19:59:55.987Z,9.83
2019-02-20T20:02:51.788Z,9.80
2019-02-20T20:05:39.675Z,11.07
2019-02-20T20:08:19.487Z,11.73
2019-02-20T20:11:20.132Z,17.03
2019-02-20T20:14:13.145Z,10.47
2019-02-20T20:17:04.261Z,9.80
2019-02-20T20:19:53.887Z,9.83
2019-02-20T20:22:28.329Z,7.67
2019-02-20T20:25:05.631Z,15.63
2019-02-20T20:27:42.928Z,11.17
2019-02-20T20:30:20.080Z,9.70
2019-02-20T20:33:00.502Z,9.97
2019-02-20T20:35:50.081Z,10.80
2019-02-20T20:38:39.508Z,8.13
2019-02-20T20:41:29.351Z,10.23
2019-02-20T20:44:03.539Z,11.43
2019-02-20T20:46:38.092Z,7.83
2019-02-20T20:49:09.822Z,12.33
2019-02-20T20:51:56.569Z,16.70
2019-02-20T20:54:28.196Z,16.37
2019-02-20T20:57:08.595Z,8.50
2019-02-20T20:59:49.030Z,8.90
2019-02-20T21:02:20.957Z,10.53
2019-02-20T21:05:09.134Z,7.17
2019-02-20T21:07:46.532Z,7.63
2019-02-20T21:10:26.955Z,10.43
2019-02-20T21:13:16.680Z,7.80
2019-02-20T21:16:06.022Z,9.83
2019-02-20T21:18:49.499Z,13.97
2019-02-20T21:21:27.124Z,12.33
2019-02-20T21:24:17.161Z,10.47
2019-02-20T21:27:06.856Z,11.40
2019-02-20T21:29:47.414Z,9.80
2019-02-20T21:32:41.872Z,11.20
2019-02-20T21:35:28.425Z,11.10
2019-02-20T21:38:18.122Z,13.13
2019-02-20T21:40:58.500Z,10.93
2019-02-20T21:43:35.685Z,11.57
2019-02-20T21:46:23.999Z,9.20
2019-02-20T21:49:04.371Z,9.97
2019-02-20T21:51:38.560Z,11.73
2019-02-20T21:54:30.734Z,12.13
2019-02-20T21:57:14.454Z,7.30
2019-02-20T21:59:48.719Z,11.77
2019-02-20T22:02:22.243Z,8.03
2019-02-20T22:04:59.845Z,13.60
2019-02-20T22:07:46.721Z,11.73
2019-02-20T22:10:34.858Z,12.37
2019-02-20T22:13:24.833Z,12.60
2019-02-20T22:16:11.292Z,10.70
2019-02-20T22:18:54.532Z,14.47
2019-02-20T22:21:42.734Z,14.27
2019-02-20T22:24:20.036Z,11.90
2019-02-20T22:27:12.562Z,15.23
2019-02-20T22:29:55.867Z,13.90
2019-02-20T22:32:27.495Z,16.37
2019-02-20T22:35:10.407Z,17.83
2019-02-20T22:37:54.276Z,15.70
2019-02-20T22:40:48.345Z,17.90
2019-02-20T22:43:41.034Z,14.20
2019-02-20T22:46:18.395Z,18.00
2019-02-20T22:49:09.767Z,16.07
2019-02-20T22:51:49.687Z,14.30
2019-02-20T22:54:42.803Z,16.40
2019-02-20T22:57:30.694Z,16.27
2019-02-20T23:00:37.457Z,15.60
2019-02-20T23:03:11.979Z,17.37
2019-02-20T23:05:43.582Z,17.30
2019-02-20T23:08:23.822Z,15.90
2019-02-20T23:11:18.349Z,19.47
2019-02-20T23:13:55.746Z,18.60
2019-02-20T23:16:24.165Z,17.17
2019-02-20T23:18:52.627Z,19.13
2019-02-20T23:21:21.048Z,24.63
2019-02-20T23:23:49.510Z,18.97
2019-02-20T23:26:17.939Z,19.90
2019-02-20T23:28:46.393Z,20.70
2019-02-20T23:31:14.821Z,21.17
2019-02-20T23:33:43.308Z,19.73
2019-02-20T23:36:11.704Z,18.63
2019-02-20T23:38:40.162Z,17.60
2019-02-20T23:41:08.587Z,18.37
2019-02-20T23:43:37.104Z,19.70
2019-02-20T23:46:05.600Z,22.97
2019-02-20T23:48:34.056Z,23.70
2019-02-20T23:51:02.475Z,26.67
2019-02-20T23:53:34.853Z,18.33
2019-02-20T23:56:06.808Z,21.50
2019-02-20T23:58:38.097Z,20.30
